Time;durP1;ratioP1;P1;durP2;ratioP2;P2;SDS_P1;SDS_P2;PMS_P1;PMS_P2;Temp;Humidity;BMP_temperature;BMP_pressure;BME280_temperature;BME280_humidity;BME280_pressure;Samples;Min_cycle;Max_cycle;Signal;HPM_P1;HPM_P2
2023/10/30 00:00:19;;;;;;;2.70;1.55;;;29.10;99.50;;;;;;5074868;28;20309;-78
2023/10/30 00:02:50;;;;;;;1.75;1.27;;;29.30;99.20;;;;;;5089827;28;20231;-77
2023/10/30 00:05:21;;;;;;;2.95;1.30;;;29.40;98.50;;;;;;5073806;28;20196;-80
2023/10/30 00:07:53;;;;;;;2.47;1.48;;;29.60;98.70;;;;;;5083672;28;20200;-84
2023/10/30 00:10:24;;;;;;;3.03;1.30;;;29.70;97.30;;;;;;5079066;28;20188;-78
2023/10/30 00:12:57;;;;;;;7.75;1.38;;;29.90;97.00;;;;;;5075121;28;20279;-80
2023/10/30 00:15:27;;;;;;;3.00;1.40;;;29.90;95.80;;;;;;5072657;28;20201;-81
2023/10/30 00:17:58;;;;;;;1.75;1.15;;;30.10;96.10;;;;;;5089218;28;20561;-82
2023/10/30 00:20:29;;;;;;;3.03;2.40;;;30.10;95.50;;;;;;5095443;28;20195;-82
2023/10/30 00:23:00;;;;;;;5.35;1.40;;;30.20;95.30;;;;;;5087376;28;20201;-82
2023/10/30 00:25:31;;;;;;;2.35;1.45;;;30.30;95.60;;;;;;5081487;28;20640;-82
2023/10/30 00:28:03;;;;;;;4.25;1.48;;;30.40;95.20;;;;;;5095542;28;20195;-76
2023/10/30 00:30:34;;;;;;;2.75;1.30;;;30.40;94.50;;;;;;5075360;28;20356;-76
2023/10/30 00:33:05;;;;;;;2.00;1.15;;;30.40;94.60;;;;;;5074978;28;20220;-78
2023/10/30 00:35:36;;;;;;;4.70;1.40;;;30.60;94.30;;;;;;5087192;28;20570;-82
2023/10/30 00:38:07;;;;;;;1.45;1.10;;;30.80;94.30;;;;;;5091112;28;20292;-81
2023/10/30 00:40:37;;;;;;;3.70;1.88;;;31.00;94.20;;;;;;5092362;28;20730;-75
2023/10/30 00:43:10;;;;;;;7.40;1.38;;;31.10;93.30;;;;;;5085628;28;20196;-85
2023/10/30 00:45:42;;;;;;;2.67;1.30;;;31.30;93.40;;;;;;5077814;28;20246;-79
2023/10/30 00:48:13;;;;;;;2.50;1.25;;;31.40;92.30;;;;;;5074423;28;20232;-78
2023/10/30 00:50:43;;;;;;;66.82;5.13;;;31.40;91.50;;;;;;5074498;28;20192;-82
2023/10/30 00:53:14;;;;;;;7.53;1.38;;;31.40;91.60;;;;;;5074520;28;20231;-77
2023/10/30 00:55:45;;;;;;;4.85;1.40;;;31.30;90.90;;;;;;5073775;28;20201;-81
2023/10/30 00:58:18;;;;;;;9.38;1.80;;;31.30;90.50;;;;;;5074185;28;20213;-80
2023/10/30 01:00:48;;;;;;;2.88;1.38;;;31.30;90.70;;;;;;5081286;28;20318;-80
2023/10/30 01:03:23;;;;;;;3.72;1.60;;;31.40;90.50;;;;;;5092056;28;20197;-82
2023/10/30 01:05:59;;;;;;;46.05;4.60;;;31.50;91.30;;;;;;5077437;28;20253;-81
2023/10/30 01:08:30;;;;;;;5.68;1.65;;;31.50;91.10;;;;;;5074016;28;20211;-82
2023/10/30 01:11:01;;;;;;;5.00;1.95;;;31.60;90.30;;;;;;5073901;28;20565;-82
2023/10/30 01:13:36;;;;;;;2.10;1.40;;;31.60;91.00;;;;;;5079117;28;20200;-78
2023/10/30 01:16:07;;;;;;;2.85;1.40;;;31.60;90.80;;;;;;5083771;28;20188;-77
2023/10/30 01:18:38;;;;;;;1.33;1.23;;;31.80;90.40;;;;;;5082663;28;20255;-76
2023/10/30 01:21:12;;;;;;;1.83;1.40;;;31.80;90.40;;;;;;5081488;28;20274;-80
2023/10/30 01:23:43;;;;;;;4.38;1.55;;;31.80;90.00;;;;;;5081918;28;20197;-74
2023/10/30 01:26:14;;;;;;;3.15;1.40;;;31.90;90.20;;;;;;5081754;28;20200;-78
2023/10/30 01:28:47;;;;;;;2.47;1.50;;;31.90;89.10;;;;;;5070906;28;20193;-78
2023/10/30 01:31:17;;;;;;;1.55;1.40;;;31.90;88.00;;;;;;5093478;28;20663;-72
2023/10/30 01:33:48;;;;;;;2.33;1.50;;;32.00;87.90;;;;;;5081071;28;20197;-73
2023/10/30 01:36:19;;;;;;;2.80;1.40;;;32.10;87.30;;;;;;5081842;28;20231;-74
2023/10/30 01:38:50;;;;;;;3.03;1.50;;;32.10;87.00;;;;;;5083717;28;20229;-75
2023/10/30 01:41:21;;;;;;;2.63;1.63;;;32.20;88.30;;;;;;5084927;28;20196;-77
2023/10/30 01:43:54;;;;;;;2.47;1.40;;;32.40;89.00;;;;;;5081579;28;20265;-72
2023/10/30 01:46:25;;;;;;;1.83;1.52;;;32.50;86.70;;;;;;5076273;28;20192;-78
2023/10/30 01:48:56;;;;;;;2.08;1.40;;;32.60;86.90;;;;;;5075255;28;20203;-79
2023/10/30 01:51:26;;;;;;;23.02;2.83;;;32.60;87.60;;;;;;5077759;28;20243;-73
2023/10/30 01:53:57;;;;;;;3.80;1.48;;;32.80;87.40;;;;;;5076992;28;20197;-77
2023/10/30 01:56:29;;;;;;;1.75;1.40;;;32.80;87.20;;;;;;5072461;28;20209;-77
2023/10/30 01:59:02;;;;;;;49.95;5.55;;;33.00;86.30;;;;;;5075800;28;20239;-78
2023/10/30 02:01:34;;;;;;;4.20;1.80;;;33.10;86.60;;;;;;5080602;28;20267;-77
2023/10/30 02:04:05;;;;;;;27.98;4.15;;;33.30;88.80;;;;;;5077367;28;20188;-79
2023/10/30 02:06:35;;;;;;;18.40;2.20;;;33.30;84.60;;;;;;5077240;28;20704;-78
2023/10/30 02:09:06;;;;;;;38.92;4.00;;;33.20;85.40;;;;;;5087981;28;20193;-78
2023/10/30 02:11:37;;;;;;;11.57;2.20;;;33.20;84.70;;;;;;5087233;28;20210;-77
2023/10/30 02:14:10;;;;;;;5.95;1.85;;;32.90;85.50;;;;;;5089943;28;20188;-81
2023/10/30 02:16:40;;;;;;;6.15;2.08;;;32.70;85.50;;;;;;5079839;28;20199;-78
2023/10/30 02:19:19;;;;;;;24.85;2.65;;;32.40;85.20;;;;;;5092166;28;20222;-75
2023/10/30 02:21:49;;;;;;;132.60;9.13;;;32.10;83.60;;;;;;5091939;28;20228;-77
2023/10/30 02:24:21;;;;;;;76.78;7.50;;;31.80;83.20;;;;;;5090485;28;20196;-79
2023/10/30 02:26:54;;;;;;;74.40;6.38;;;31.60;83.50;;;;;;5078319;28;20196;-80
2023/10/30 02:29:25;;;;;;;5.13;1.60;;;31.40;82.80;;;;;;5084770;28;20203;-80
2023/10/30 02:31:56;;;;;;;4.20;1.50;;;31.70;81.20;;;;;;5082233;28;20192;-76
2023/10/30 02:34:27;;;;;;;1.67;1.40;;;32.10;80.90;;;;;;5076859;28;20211;-73
2023/10/30 02:36:58;;;;;;;3.72;1.30;;;32.40;82.80;;;;;;5089386;28;20274;-74
2023/10/30 02:39:32;;;;;;;3.15;1.50;;;32.50;82.00;;;;;;5086679;28;20224;-77
2023/10/30 02:42:05;;;;;;;3.88;1.60;;;32.70;82.20;;;;;;5094068;28;20649;-70
2023/10/30 02:44:36;;;;;;;3.65;1.70;;;32.80;91.50;;;;;;5083110;28;20198;-72
2023/10/30 02:47:08;;;;;;;2.20;1.50;;;32.70;84.70;;;;;;5076274;28;20224;-75
2023/10/30 02:49:39;;;;;;;3.03;1.80;;;32.70;81.70;;;;;;5088048;28;20664;-75
2023/10/30 02:52:09;;;;;;;5.00;1.50;;;32.80;81.80;;;;;;5077115;28;20220;-74
2023/10/30 02:54:43;;;;;;;4.53;1.60;;;32.80;80.40;;;;;;5076479;28;20193;-71
2023/10/30 02:57:16;;;;;;;2.78;1.50;;;32.90;79.70;;;;;;5076529;28;20200;-70
2023/10/30 02:59:47;;;;;;;2.20;1.30;;;33.00;79.30;;;;;;5076362;28;20239;-70
2023/10/30 03:02:18;;;;;;;1.73;1.50;;;33.20;78.60;;;;;;5079258;28;20231;-71
2023/10/30 03:04:48;;;;;;;4.60;1.70;;;33.20;79.40;;;;;;5080759;28;20291;-72
2023/10/30 03:07:19;;;;;;;3.55;1.60;;;33.30;79.40;;;;;;5080969;28;20192;-71
2023/10/30 03:09:50;;;;;;;2.58;1.70;;;33.20;76.50;;;;;;5087776;28;20279;-72
2023/10/30 03:12:23;;;;;;;3.20;1.70;;;33.30;78.20;;;;;;5087390;28;20231;-72
2023/10/30 03:14:54;;;;;;;1.70;1.60;;;33.40;77.90;;;;;;5078339;28;20203;-72
2023/10/30 03:17:25;;;;;;;1.90;1.70;;;33.50;77.30;;;;;;5085484;28;20201;-71
2023/10/30 03:19:55;;;;;;;3.40;1.60;;;33.40;77.40;;;;;;5084691;28;20207;-72
2023/10/30 03:22:26;;;;;;;2.25;1.70;;;33.60;77.30;;;;;;5081514;28;20199;-72
2023/10/30 03:24:58;;;;;;;4.88;1.67;;;33.60;76.80;;;;;;5082481;28;20224;-72
2023/10/30 03:27:30;;;;;;;3.83;1.88;;;33.60;75.10;;;;;;5082307;28;20579;-72
2023/10/30 03:30:01;;;;;;;3.70;1.60;;;33.60;76.90;;;;;;5077419;28;20193;-72
2023/10/30 03:32:32;;;;;;;2.90;1.73;;;33.60;76.40;;;;;;5081712;28;20184;-76
2023/10/30 03:35:03;;;;;;;6.30;1.70;;;33.50;77.40;;;;;;5089467;28;20192;-71
2023/10/30 03:37:34;;;;;;;4.38;1.80;;;33.50;73.00;;;;;;5078346;28;20582;-73
2023/10/30 03:40:05;;;;;;;1.92;1.58;;;33.30;72.60;;;;;;5082461;28;20216;-73
2023/10/30 03:42:38;;;;;;;2.00;1.50;;;33.10;73.20;;;;;;5079676;28;20201;-71
2023/10/30 03:45:09;;;;;;;3.42;1.50;;;33.10;74.60;;;;;;5086651;28;20204;-72
2023/10/30 03:47:40;;;;;;;3.13;1.65;;;33.10;72.20;;;;;;5078059;28;20801;-71
2023/10/30 03:50:12;;;;;;;4.70;1.75;;;32.90;72.40;;;;;;5084627;28;20276;-71
2023/10/30 03:52:44;;;;;;;4.72;1.83;;;33.00;72.70;;;;;;5079590;28;20203;-71
2023/10/30 03:55:15;;;;;;;3.13;1.70;;;32.90;72.90;;;;;;5079725;28;20279;-71
2023/10/30 03:57:47;;;;;;;4.00;1.85;;;32.80;71.50;;;;;;5078241;28;20192;-71
2023/10/30 04:00:18;;;;;;;2.03;1.50;;;32.60;72.50;;;;;;5078090;28;20290;-71
2023/10/30 04:02:49;;;;;;;5.03;2.40;;;32.50;71.70;;;;;;5076109;28;20196;-71
2023/10/30 04:05:20;;;;;;;2.35;1.50;;;32.40;70.80;;;;;;5079220;28;20201;-72
2023/10/30 04:07:51;;;;;;;2.00;1.60;;;32.40;70.90;;;;;;5075405;28;20687;-72
2023/10/30 04:10:22;;;;;;;7.90;2.00;;;32.30;71.90;;;;;;5076009;28;20199;-71
2023/10/30 04:12:54;;;;;;;3.00;1.70;;;32.30;70.40;;;;;;5081785;28;20297;-71
2023/10/30 04:15:25;;;;;;;2.60;1.85;;;32.20;71.30;;;;;;5074076;28;20282;-72
2023/10/30 04:17:56;;;;;;;4.13;1.63;;;32.10;70.80;;;;;;5078473;28;20200;-71
2023/10/30 04:20:27;;;;;;;4.50;2.00;;;32.00;71.20;;;;;;5087798;28;20217;-71
2023/10/30 04:22:58;;;;;;;3.85;2.20;;;31.90;72.10;;;;;;5079928;28;20204;-71
2023/10/30 04:25:29;;;;;;;1.90;1.70;;;31.80;72.70;;;;;;5080775;28;20196;-71
2023/10/30 04:28:01;;;;;;;1.90;1.70;;;31.70;73.20;;;;;;5085805;28;20196;-74
2023/10/30 04:30:32;;;;;;;3.67;1.67;;;31.60;72.70;;;;;;5079809;28;20280;-71
2023/10/30 04:33:03;;;;;;;2.58;1.67;;;31.60;72.50;;;;;;5077940;28;20193;-71
2023/10/30 04:35:34;;;;;;;4.25;1.80;;;31.60;72.90;;;;;;5075651;28;20322;-72
2023/10/30 04:38:05;;;;;;;18.33;2.13;;;31.60;73.60;;;;;;5079743;28;20193;-73
2023/10/30 04:40:35;;;;;;;4.50;1.92;;;31.70;74.80;;;;;;5090644;28;20695;-72
2023/10/30 04:43:08;;;;;;;2.25;1.80;;;31.80;74.40;;;;;;5074479;28;20193;-72
2023/10/30 04:45:40;;;;;;;2.63;1.50;;;32.20;74.50;;;;;;5082517;28;20199;-71
2023/10/30 04:48:10;;;;;;;3.55;1.90;;;32.40;74.00;;;;;;5083153;28;20279;-72
2023/10/30 04:50:41;;;;;;;2.72;1.73;;;32.50;73.30;;;;;;5078983;28;20280;-71
2023/10/30 04:53:12;;;;;;;2.40;1.70;;;32.50;73.30;;;;;;5080776;28;20193;-72
2023/10/30 04:55:43;;;;;;;2.10;1.90;;;32.40;74.00;;;;;;5084110;28;20807;-72
2023/10/30 04:58:15;;;;;;;2.30;1.77;;;32.20;73.40;;;;;;5082117;28;20189;-72
2023/10/30 05:00:46;;;;;;;2.03;1.73;;;32.20;73.50;;;;;;5074019;28;20584;-72
2023/10/30 05:03:17;;;;;;;3.25;1.95;;;32.30;73.60;;;;;;5074462;28;20280;-72
2023/10/30 05:05:48;;;;;;;2.58;1.80;;;32.40;73.80;;;;;;5075400;28;20596;-71
2023/10/30 05:08:20;;;;;;;2.72;1.75;;;32.60;73.20;;;;;;5086637;28;20224;-72
2023/10/30 05:10:54;;;;;;;3.38;1.88;;;32.80;74.50;;;;;;5079604;28;20193;-74
2023/10/30 05:13:27;;;;;;;3.53;1.95;;;32.80;73.60;;;;;;5084515;28;20203;-72
2023/10/30 05:15:58;;;;;;;3.45;1.85;;;32.90;73.50;;;;;;5078779;28;20193;-73
2023/10/30 05:18:31;;;;;;;4.10;1.80;;;32.80;73.50;;;;;;5080940;28;20572;-72
2023/10/30 05:21:04;;;;;;;2.30;1.90;;;32.70;73.30;;;;;;5085661;28;20216;-72
2023/10/30 05:23:35;;;;;;;3.15;1.90;;;32.60;72.80;;;;;;5081760;28;20685;-72
2023/10/30 05:26:05;;;;;;;2.85;1.77;;;32.40;73.20;;;;;;5080261;28;20193;-72
2023/10/30 05:28:39;;;;;;;2.78;1.80;;;32.20;73.50;;;;;;5084220;28;20657;-72
2023/10/30 05:31:10;;;;;;;2.15;1.65;;;32.20;73.30;;;;;;5085096;28;20210;-72
2023/10/30 05:33:41;;;;;;;6.35;1.88;;;32.20;73.10;;;;;;5084793;28;20219;-73
2023/10/30 05:36:12;;;;;;;2.38;1.80;;;32.20;73.20;;;;;;5085429;28;20224;-72
2023/10/30 05:38:43;;;;;;;2.65;1.90;;;32.20;73.10;;;;;;5084446;28;20267;-72
2023/10/30 05:41:13;;;;;;;2.65;1.90;;;32.20;72.70;;;;;;5084144;28;20213;-72
2023/10/30 05:43:46;;;;;;;3.35;1.92;;;32.20;72.60;;;;;;5075511;28;20184;-71
2023/10/30 05:46:17;;;;;;;2.13;1.92;;;32.20;72.10;;;;;;5074736;28;20193;-72
2023/10/30 05:48:48;;;;;;;5.03;1.98;;;32.10;72.00;;;;;;5084268;28;20249;-72
2023/10/30 05:51:19;;;;;;;4.80;2.10;;;32.00;73.00;;;;;;5075003;28;20207;-71
2023/10/30 05:53:50;;;;;;;3.72;1.85;;;32.00;73.20;;;;;;5073603;28;20264;-71
2023/10/30 05:56:21;;;;;;;3.58;1.92;;;31.90;72.10;;;;;;5073630;28;20197;-71
2023/10/30 05:58:54;;;;;;;6.13;2.05;;;31.80;72.20;;;;;;5073287;28;20272;-71
2023/10/30 06:01:25;;;;;;;3.83;1.90;;;31.80;72.00;;;;;;5077199;28;20584;-71
2023/10/30 06:03:56;;;;;;;2.85;1.88;;;31.70;72.60;;;;;;5076087;28;20205;-71
2023/10/30 06:06:26;;;;;;;4.70;1.90;;;31.60;73.00;;;;;;5073429;28;20189;-71
2023/10/30 06:08:57;;;;;;;2.20;2.00;;;31.50;73.50;;;;;;5073454;28;20638;-72
2023/10/30 06:11:28;;;;;;;3.00;1.90;;;31.40;73.40;;;;;;5079106;28;20258;-72
2023/10/30 06:14:01;;;;;;;2.25;1.90;;;31.30;73.70;;;;;;5079643;28;20193;-72
2023/10/30 06:16:32;;;;;;;3.65;2.00;;;31.30;73.60;;;;;;5081456;28;20227;-72
2023/10/30 06:19:03;;;;;;;2.40;1.92;;;31.20;73.30;;;;;;5078164;28;20197;-72
2023/10/30 06:21:35;;;;;;;3.75;2.30;;;31.20;73.80;;;;;;5080539;28;20303;-72
2023/10/30 06:24:06;;;;;;;2.90;2.10;;;31.20;74.20;;;;;;5074320;28;20246;-73
2023/10/30 06:26:37;;;;;;;2.38;2.17;;;31.10;73.50;;;;;;5073570;28;20675;-72
2023/10/30 06:29:09;;;;;;;2.70;2.10;;;31.00;77.00;;;;;;5091536;28;20192;-72
2023/10/30 06:31:40;;;;;;;5.40;2.05;;;30.90;77.40;;;;;;5073092;28;20756;-72
2023/10/30 06:34:11;;;;;;;6.32;2.30;;;30.50;91.70;;;;;;5088767;28;20285;-72
2023/10/30 06:36:42;;;;;;;6.75;2.13;;;30.10;93.60;;;;;;5086915;28;20251;-72
2023/10/30 06:39:13;;;;;;;6.90;2.33;;;29.70;95.50;;;;;;5089698;28;20200;-73
2023/10/30 06:41:44;;;;;;;7.80;2.40;;;29.20;96.80;;;;;;5077954;28;20239;-73
2023/10/30 06:44:16;;;;;;;4.75;2.22;;;28.90;97.50;;;;;;5078482;28;20197;-73
2023/10/30 06:46:50;;;;;;;10.25;2.40;;;28.60;98.40;;;;;;5082667;28;20198;-73
2023/10/30 06:49:21;;;;;;;10.15;2.38;;;28.50;99.10;;;;;;5077326;28;20197;-73
2023/10/30 06:51:51;;;;;;;6.95;2.35;;;28.40;99.90;;;;;;5092341;28;20200;-73
2023/10/30 06:54:22;;;;;;;5.30;2.28;;;28.20;99.90;;;;;;5085716;28;20656;-73
2023/10/30 06:56:53;;;;;;;7.60;2.30;;;28.10;99.90;;;;;;5078100;28;20193;-73
2023/10/30 06:59:27;;;;;;;8.77;2.30;;;28.10;99.90;;;;;;5090473;28;20232;-73
2023/10/30 07:01:57;;;;;;;8.68;2.50;;;28.10;99.90;;;;;;5078259;28;20323;-73
2023/10/30 07:04:29;;;;;;;9.88;3.80;;;28.00;99.90;;;;;;5072868;28;20620;-73
2023/10/30 07:07:00;;;;;;;7.13;2.92;;;28.00;99.90;;;;;;5086798;28;20199;-72
2023/10/30 07:09:31;;;;;;;6.65;3.03;;;28.00;99.90;;;;;;5072814;28;20227;-73
2023/10/30 07:12:02;;;;;;;7.75;3.10;;;27.90;99.90;;;;;;5072261;28;20209;-73
2023/10/30 07:14:39;;;;;;;6.28;3.53;;;28.40;90.80;;;;;;5073038;28;20185;-72
2023/10/30 07:17:09;;;;;;;3.97;2.90;;;29.20;86.30;;;;;;5086670;28;20188;-72
2023/10/30 07:19:40;;;;;;;7.03;3.33;;;29.80;84.00;;;;;;5081194;28;20691;-71
2023/10/30 07:22:11;;;;;;;7.95;3.50;;;30.40;80.70;;;;;;5078681;28;20565;-76
2023/10/30 07:24:42;;;;;;;5.57;3.08;;;30.90;79.50;;;;;;5082598;28;20196;-71
2023/10/30 07:27:13;;;;;;;7.88;2.88;;;31.20;77.60;;;;;;5080134;28;20192;-73
2023/10/30 07:29:46;;;;;;;4.43;3.00;;;31.50;77.00;;;;;;5082819;28;20196;-74
2023/10/30 07:32:17;;;;;;;4.60;2.63;;;31.60;77.00;;;;;;5076211;28;20205;-73
2023/10/30 07:34:48;;;;;;;6.50;3.13;;;31.60;76.40;;;;;;5092175;28;20599;-73
2023/10/30 07:37:18;;;;;;;6.28;2.60;;;31.70;75.40;;;;;;5088218;28;20192;-73
2023/10/30 07:39:49;;;;;;;4.95;2.70;;;31.80;75.10;;;;;;5081348;28;20203;-72
2023/10/30 07:42:20;;;;;;;6.53;2.80;;;31.70;74.90;;;;;;5089360;28;20222;-73
2023/10/30 07:44:53;;;;;;;6.18;2.58;;;31.70;74.80;;;;;;5076644;28;20228;-73
2023/10/30 07:47:24;;;;;;;6.13;2.88;;;31.60;74.60;;;;;;5079290;28;20279;-73
2023/10/30 07:49:54;;;;;;;5.95;2.63;;;31.60;74.90;;;;;;5073763;28;20192;-73
2023/10/30 07:52:25;;;;;;;2.78;2.50;;;31.40;74.00;;;;;;5075465;28;20189;-72
2023/10/30 07:54:56;;;;;;;3.60;2.83;;;31.40;74.00;;;;;;5074062;28;20275;-73
2023/10/30 07:57:27;;;;;;;6.20;2.80;;;31.30;73.70;;;;;;5078407;28;20250;-72
2023/10/30 08:00:00;;;;;;;5.00;2.40;;;31.20;73.60;;;;;;5079443;28;20228;-73
2023/10/30 08:02:32;;;;;;;6.68;2.47;;;31.10;74.00;;;;;;5081383;28;20224;-72
2023/10/30 08:05:03;;;;;;;2.88;2.30;;;31.10;73.60;;;;;;5078997;28;20211;-72
2023/10/30 08:07:34;;;;;;;6.53;2.60;;;31.00;73.30;;;;;;5082824;28;20195;-72
2023/10/30 08:10:06;;;;;;;2.83;2.25;;;31.00;73.40;;;;;;5081358;28;20716;-74
2023/10/30 08:12:37;;;;;;;3.65;2.15;;;31.00;72.90;;;;;;5079930;28;20598;-72
2023/10/30 08:15:10;;;;;;;4.63;2.45;;;30.90;72.90;;;;;;5084530;28;20260;-72
2023/10/30 08:17:41;;;;;;;3.95;2.20;;;30.80;72.90;;;;;;5092529;28;20211;-73
2023/10/30 08:20:13;;;;;;;5.78;2.33;;;30.80;73.20;;;;;;5084007;28;20201;-73
2023/10/30 08:22:44;;;;;;;4.13;2.10;;;30.70;72.80;;;;;;5080159;28;20204;-72
2023/10/30 08:25:15;;;;;;;3.17;2.17;;;30.60;72.80;;;;;;5079533;28;20197;-73
2023/10/30 08:27:45;;;;;;;4.45;2.33;;;30.60;72.80;;;;;;5088502;28;20201;-73
2023/10/30 08:30:19;;;;;;;3.90;2.60;;;30.50;73.00;;;;;;5077772;28;20192;-73
2023/10/30 08:32:49;;;;;;;4.93;2.17;;;30.40;72.90;;;;;;5077206;28;20193;-74
2023/10/30 08:35:20;;;;;;;5.25;2.10;;;30.30;73.30;;;;;;5087309;28;20224;-73
2023/10/30 08:37:51;;;;;;;4.35;2.13;;;30.20;73.40;;;;;;5091853;28;20197;-73
2023/10/30 08:40:22;;;;;;;4.38;2.30;;;30.10;73.40;;;;;;5089051;28;20279;-73
2023/10/30 08:42:53;;;;;;;6.25;2.30;;;29.90;73.50;;;;;;5079264;28;20199;-73
2023/10/30 08:45:26;;;;;;;5.60;2.45;;;29.80;73.50;;;;;;5079493;28;20196;-73
2023/10/30 08:47:56;;;;;;;4.50;2.42;;;29.80;73.60;;;;;;5079584;28;20221;-73
2023/10/30 08:50:27;;;;;;;4.88;2.50;;;29.70;74.70;;;;;;5088107;28;20200;-73
2023/10/30 08:52:58;;;;;;;5.45;2.40;;;29.60;74.60;;;;;;5083305;28;20196;-73
2023/10/30 08:55:29;;;;;;;4.38;2.40;;;29.40;74.90;;;;;;5091630;28;20210;-73
2023/10/30 08:58:00;;;;;;;8.38;2.30;;;29.40;74.20;;;;;;5092275;28;20719;-73
2023/10/30 09:00:32;;;;;;;4.80;2.30;;;29.40;74.40;;;;;;5085208;28;20275;-73
2023/10/30 09:03:03;;;;;;;3.58;2.10;;;29.20;74.10;;;;;;5072990;28;20299;-73
2023/10/30 09:05:34;;;;;;;3.90;2.50;;;29.20;73.90;;;;;;5086310;28;20193;-73
2023/10/30 09:08:05;;;;;;;4.10;2.30;;;29.20;74.10;;;;;;5078933;28;20205;-73
2023/10/30 09:10:36;;;;;;;3.42;2.20;;;29.10;74.30;;;;;;5075058;28;20530;-73
2023/10/30 09:13:07;;;;;;;4.35;2.30;;;29.00;74.60;;;;;;5078612;28;20197;-73
2023/10/30 09:15:40;;;;;;;6.00;2.30;;;28.90;74.80;;;;;;5080181;28;20224;-74
2023/10/30 09:18:11;;;;;;;4.70;2.25;;;28.80;74.80;;;;;;5080788;28;20304;-74
2023/10/30 09:20:42;;;;;;;3.65;2.40;;;28.70;75.10;;;;;;5082561;28;20195;-73
2023/10/30 09:23:13;;;;;;;2.63;2.35;;;28.60;75.20;;;;;;5085058;28;20199;-74
2023/10/30 09:25:43;;;;;;;3.22;2.55;;;28.50;75.40;;;;;;5087996;28;20279;-74
2023/10/30 09:28:18;;;;;;;2.60;2.40;;;28.50;75.20;;;;;;5077168;28;20189;-73
2023/10/30 09:30:50;;;;;;;3.25;2.35;;;28.40;75.40;;;;;;5084260;28;20246;-74
2023/10/30 09:33:21;;;;;;;4.35;2.38;;;28.40;75.50;;;;;;5093183;28;20544;-74
2023/10/30 09:35:52;;;;;;;2.90;2.15;;;28.30;76.30;;;;;;5081988;28;20233;-74
2023/10/30 09:38:26;;;;;;;3.78;2.53;;;28.10;78.20;;;;;;5086300;28;20287;-74
2023/10/30 09:41:05;;;;;;;3.20;2.40;;;28.00;78.70;;;;;;5083012;28;20193;-74
2023/10/30 09:43:37;;;;;;;3.83;2.50;;;27.90;77.00;;;;;;5081297;28;20204;-74
2023/10/30 09:46:11;;;;;;;3.35;2.38;;;27.90;77.60;;;;;;5082367;28;20199;-73
2023/10/30 09:48:42;;;;;;;4.82;2.50;;;27.80;78.10;;;;;;5080463;28;20197;-73
2023/10/30 09:51:13;;;;;;;3.05;2.20;;;27.70;79.00;;;;;;5083030;28;20203;-73
2023/10/30 09:53:46;;;;;;;2.95;2.20;;;27.60;83.40;;;;;;5073032;28;20208;-73
2023/10/30 09:56:18;;;;;;;2.78;2.45;;;27.40;84.30;;;;;;5072432;28;20200;-73
2023/10/30 09:58:50;;;;;;;3.63;2.53;;;27.30;85.60;;;;;;5078580;28;20192;-73
2023/10/30 10:01:24;;;;;;;4.18;2.38;;;27.10;86.60;;;;;;5079219;28;20303;-74
2023/10/30 10:03:54;;;;;;;3.08;2.50;;;27.00;87.50;;;;;;5079621;28;20659;-73
2023/10/30 10:06:25;;;;;;;7.20;3.00;;;26.90;86.50;;;;;;5081976;28;20284;-74
2023/10/30 10:08:56;;;;;;;4.00;2.90;;;26.80;85.80;;;;;;5077760;28;20203;-73
2023/10/30 10:11:35;;;;;;;3.25;2.67;;;26.80;86.40;;;;;;5093751;28;20235;-73
2023/10/30 10:14:07;;;;;;;4.68;2.92;;;26.70;84.70;;;;;;5071585;28;20200;-74
2023/10/30 10:16:39;;;;;;;6.55;2.85;;;26.80;81.50;;;;;;5073007;28;20196;-73
2023/10/30 10:19:24;;;;;;;5.10;3.05;;;26.90;80.40;;;;;;5083460;28;20193;-74
2023/10/30 10:21:57;;;;;;;4.72;3.08;;;27.00;80.00;;;;;;5073885;28;20262;-73
2023/10/30 10:24:32;;;;;;;5.35;2.78;;;27.10;79.60;;;;;;5079121;28;20541;-73
2023/10/30 10:27:04;;;;;;;6.18;2.83;;;27.20;79.40;;;;;;5086420;28;20206;-73
2023/10/30 10:29:35;;;;;;;5.43;3.05;;;27.20;79.30;;;;;;5082529;28;20210;-73
2023/10/30 10:32:08;;;;;;;4.25;2.85;;;27.30;79.30;;;;;;5086098;28;20200;-73
2023/10/30 10:34:40;;;;;;;4.30;2.47;;;27.30;79.40;;;;;;5072748;28;20251;-73
2023/10/30 10:37:20;;;;;;;4.32;2.95;;;27.20;79.60;;;;;;5076374;28;20196;-73
2023/10/30 10:39:51;;;;;;;4.97;2.50;;;27.20;79.30;;;;;;5091659;28;20195;-73
2023/10/30 10:42:23;;;;;;;8.15;2.63;;;27.10;79.40;;;;;;5076216;28;20243;-73
2023/10/30 10:44:56;;;;;;;5.68;2.95;;;27.10;79.80;;;;;;5073050;28;20193;-73
2023/10/30 10:47:29;;;;;;;5.88;2.80;;;27.00;79.60;;;;;;5083392;28;20205;-73
2023/10/30 10:50:00;;;;;;;4.72;2.90;;;26.90;81.30;;;;;;5078221;28;20680;-73
2023/10/30 10:52:32;;;;;;;6.40;3.10;;;26.80;83.80;;;;;;5089848;28;20275;-73
2023/10/30 10:55:05;;;;;;;4.78;2.60;;;26.60;85.00;;;;;;5075121;28;20196;-73
2023/10/30 10:57:43;;;;;;;5.78;2.80;;;26.40;86.50;;;;;;5074248;28;20283;-73
2023/10/30 11:00:15;;;;;;;5.22;3.05;;;26.20;87.40;;;;;;5076567;28;20236;-73
2023/10/30 11:02:53;;;;;;;5.32;3.28;;;26.00;87.50;;;;;;5077976;28;20215;-73
2023/10/30 11:05:29;;;;;;;4.93;2.67;;;25.90;88.80;;;;;;5082677;28;20222;-72
2023/10/30 11:08:04;;;;;;;4.18;3.10;;;25.70;89.40;;;;;;5084915;28;20720;-73
2023/10/30 11:10:37;;;;;;;4.03;2.65;;;25.60;90.10;;;;;;5081694;28;20188;-72
2023/10/30 11:13:31;;;;;;;4.47;2.55;;;25.50;90.70;;;;;;5077963;28;20250;-73
2023/10/30 11:16:09;;;;;;;5.28;2.90;;;25.40;90.60;;;;;;5086395;28;20202;-72
2023/10/30 11:18:42;;;;;;;5.60;3.00;;;25.20;90.70;;;;;;5079920;28;20200;-73
2023/10/30 11:21:15;;;;;;;6.50;3.42;;;25.20;90.90;;;;;;5081854;28;20497;-73
2023/10/30 11:23:57;;;;;;;7.55;3.15;;;25.00;90.60;;;;;;5084150;28;20189;-73
2023/10/30 11:26:43;;;;;;;3.95;2.95;;;25.00;90.80;;;;;;5081714;28;20630;-73
2023/10/30 11:29:17;;;;;;;6.20;3.25;;;24.90;91.20;;;;;;5079772;28;20572;-73
2023/10/30 11:32:00;;;;;;;5.15;3.30;;;24.80;91.90;;;;;;5083927;28;20201;-73
2023/10/30 11:34:39;;;;;;;4.30;3.00;;;24.70;91.80;;;;;;5081777;28;20674;-73
2023/10/30 11:37:12;;;;;;;5.03;3.10;;;24.60;92.00;;;;;;5077674;28;20398;-73
2023/10/30 11:39:45;;;;;;;6.57;3.17;;;24.60;92.10;;;;;;5078714;28;20652;-73
2023/10/30 11:42:39;;;;;;;4.45;3.50;;;24.50;92.30;;;;;;5085044;28;20234;-73
2023/10/30 11:45:21;;;;;;;5.82;3.42;;;24.30;92.00;;;;;;5082690;28;20283;-73
2023/10/30 11:47:59;;;;;;;4.18;3.05;;;24.10;92.30;;;;;;5074114;28;20197;-73
2023/10/30 11:50:36;;;;;;;6.05;3.22;;;24.00;92.60;;;;;;5088001;28;20210;-73
2023/10/30 11:53:14;;;;;;;4.45;2.92;;;24.00;92.90;;;;;;5085951;28;20214;-73
2023/10/30 11:55:47;;;;;;;4.55;3.10;;;23.90;92.80;;;;;;5083639;28;20211;-73
2023/10/30 11:58:20;;;;;;;5.68;3.13;;;23.70;92.70;;;;;;5081797;28;20567;-74
2023/10/30 12:00:51;;;;;;;5.10;2.83;;;23.70;93.20;;;;;;5075509;28;20224;-73
2023/10/30 12:03:22;;;;;;;5.18;2.35;;;23.60;92.90;;;;;;5085969;28;20228;-74
2023/10/30 12:05:55;;;;;;;4.35;3.05;;;23.60;93.20;;;;;;5082031;28;20261;-73
2023/10/30 12:08:26;;;;;;;5.53;3.08;;;23.60;93.70;;;;;;5078718;28;20199;-73
2023/10/30 12:10:58;;;;;;;4.32;3.00;;;23.60;94.30;;;;;;5083050;28;20197;-74
2023/10/30 12:13:28;;;;;;;5.07;3.03;;;23.50;93.70;;;;;;5075004;28;20189;-74
2023/10/30 12:16:00;;;;;;;5.75;2.88;;;23.40;93.30;;;;;;5078865;28;20191;-73
2023/10/30 12:18:31;;;;;;;4.88;2.97;;;23.30;93.80;;;;;;5075358;28;20645;-73
2023/10/30 12:21:03;;;;;;;4.40;3.15;;;23.30;94.30;;;;;;5075186;28;20189;-73
2023/10/30 12:23:34;;;;;;;5.45;3.28;;;23.20;94.30;;;;;;5083950;28;20981;-73
2023/10/30 12:26:08;;;;;;;5.95;3.08;;;23.10;94.60;;;;;;5077715;28;20200;-73
2023/10/30 12:28:39;;;;;;;4.88;3.00;;;23.00;95.00;;;;;;5079061;28;20201;-73
2023/10/30 12:31:24;;;;;;;5.72;3.10;;;22.90;95.00;;;;;;5075157;28;20193;-73
2023/10/30 12:34:10;;;;;;;3.38;2.80;;;22.80;95.20;;;;;;5085126;28;20254;-74
2023/10/30 12:36:43;;;;;;;5.43;2.92;;;22.80;95.50;;;;;;5075108;28;20275;-74
2023/10/30 12:39:18;;;;;;;4.72;2.72;;;22.80;96.00;;;;;;5087052;28;20203;-74
2023/10/30 12:41:49;;;;;;;5.60;3.40;;;22.80;96.50;;;;;;5080251;28;20723;-74
2023/10/30 12:44:20;;;;;;;4.32;2.95;;;22.80;97.60;;;;;;5082616;28;20233;-73
2023/10/30 12:46:51;;;;;;;5.65;3.10;;;22.80;98.30;;;;;;5080523;28;20193;-73
2023/10/30 12:49:22;;;;;;;3.92;3.00;;;22.80;99.70;;;;;;5087248;28;20594;-73
2023/10/30 12:51:55;;;;;;;3.95;2.70;;;22.80;99.90;;;;;;5078440;28;20320;-73
2023/10/30 12:54:25;;;;;;;4.75;3.00;;;22.80;99.90;;;;;;5088651;28;20196;-73
2023/10/30 12:56:56;;;;;;;5.78;3.00;;;22.70;99.90;;;;;;5080032;28;20199;-74
2023/10/30 12:59:27;;;;;;;5.85;3.28;;;22.70;99.90;;;;;;5086336;28;20645;-73
2023/10/30 13:01:58;;;;;;;5.85;3.40;;;22.60;99.90;;;;;;5084035;28;20200;-73
2023/10/30 13:04:29;;;;;;;6.55;3.42;;;22.60;99.90;;;;;;5074035;28;20197;-73
2023/10/30 13:07:01;;;;;;;4.57;3.08;;;22.50;99.90;;;;;;5075844;28;20665;-73
2023/10/30 13:09:32;;;;;;;5.43;2.90;;;22.40;99.90;;;;;;5072797;28;20560;-74